Ana Sayfa
METAR-TAF:

METAR-TAF

Havaalanları :

Capital City Airport

Frankfort, Kentucky, Amerika Birleşik Devletleri

Enlem: 38-11-05N, Boylam: 084-54-12W, yükseklik: 245 m

Güncel hava durumu gözlemi

Rapor saat 22:53 UTC de 1 saat ve 0 dakika önce yapıldı.
Rüzgar kuzeydoğudan 5 kt
Sıcaklık 21°C
Nem 73%
Basınç 1019 hPa
Görüş mesafesi: 16.1 km
6500 ft yükseklikte çok bulutlu

METAR: KFFT 232253Z AUTO 05005KT 10SM OVC065 21/16 A3009 RMK AO2 SLP182 T02110156

Saat: 19:53 (23:53 UTC)


TAF: eksik

4.000'den fazla havaalanı için hava durumu gözlemleri ve tahminleri (METAR ve TAF raporları).

Kullanılabilir istasyonlar harita üzerinde sarı ve kırmızı noktalarla gösterilir.

İstasyonun adını görmek için fareyi noktanın üzerinde gezdirin.

Sonrasında hava gözlem ve tahminlerini görmek için tıklayın.

Haritayı değiştirmek için: yaklaştırmak için siyah artı işaretli yeşil düğmeye ve uzaklaştırmak için de eksi işaretli düğmeye hızla tıklayın; bitişik haritalar için yeşil okları kullanın.


METAR-TAF: